Time;durP1;ratioP1;P1;durP2;ratioP2;P2;SDS_P1;SDS_P2;PMS_P1;PMS_P2;Temp;Humidity;BMP_temperature;BMP_pressure;BME280_temperature;BME280_humidity;BME280_pressure;Samples;Min_cycle;Max_cycle;Signal;HPM_P1;HPM_P2
2024/01/11 00:01:27;;;;;;;61.20;32.40;;;;;;;-4.23;82.31;99616.20;107291;1257;67523;-40
2024/01/11 00:03:55;;;;;;;62.10;32.30;;;;;;;-4.20;82.28;99630.18;107271;1257;72545;-40
2024/01/11 00:06:22;;;;;;;54.70;29.80;;;;;;;-4.18;82.24;99619.77;107252;1257;60822;-40
2024/01/11 00:08:50;;;;;;;58.40;30.40;;;;;;;-4.12;81.98;99612.45;106540;1256;1002559;-40
2024/01/11 00:11:18;;;;;;;59.80;31.20;;;;;;;-4.13;81.92;99603.96;107278;1257;73841;-40
2024/01/11 00:13:45;;;;;;;56.60;31.90;;;;;;;-4.16;82.16;99602.19;106518;1257;1003612;-40
2024/01/11 00:16:13;;;;;;;57.30;29.50;;;;;;;-4.19;82.16;99597.90;107286;1262;71459;-40
2024/01/11 00:18:41;;;;;;;55.20;29.20;;;;;;;-4.16;82.03;99589.98;107274;1254;60912;-40
2024/01/11 00:21:08;;;;;;;59.00;31.60;;;;;;;-4.10;81.86;99583.80;107247;1254;60494;-40
2024/01/11 00:23:36;;;;;;;53.30;29.00;;;;;;;-4.08;82.09;99585.67;107290;1254;73877;-40
2024/01/11 00:26:04;;;;;;;56.70;30.80;;;;;;;-4.11;81.94;99583.95;107297;1257;67963;-40
2024/01/11 00:28:32;;;;;;;57.00;30.10;;;;;;;-4.14;82.03;99581.60;107368;1254;72699;-40
2024/01/11 00:30:59;;;;;;;55.90;28.30;;;;;;;-4.11;81.78;99582.79;107240;1255;60490;-40
2024/01/11 00:33:27;;;;;;;53.00;27.70;;;;;;;-4.04;81.59;99588.28;107287;1254;60572;-40
2024/01/11 00:35:55;;;;;;;53.80;30.80;;;;;;;-4.05;81.60;99582.23;107290;1254;73875;-40
2024/01/11 00:38:22;;;;;;;57.50;31.30;;;;;;;-4.06;81.70;99581.28;107206;1257;67867;-40
2024/01/11 00:40:50;;;;;;;60.20;30.30;;;;;;;-4.13;81.27;99571.66;107255;1257;72729;-40
2024/01/11 00:43:17;;;;;;;57.50;30.70;;;;;;;-4.04;81.28;99578.54;107279;1256;60901;-40
2024/01/11 00:45:45;;;;;;;57.40;28.90;;;;;;;-3.99;80.94;99576.87;107266;1257;61018;-40
2024/01/11 00:48:13;;;;;;;58.50;31.20;;;;;;;-4.02;80.99;99565.04;107326;1258;73947;-40
2024/01/11 00:50:41;;;;;;;59.40;30.90;;;;;;;-4.07;80.79;99568.52;106586;1257;1002950;-40
2024/01/11 00:53:10;;;;;;;56.30;29.00;;;;;;;-4.11;80.97;99561.94;107258;1257;72314;-40
2024/01/11 00:55:37;;;;;;;54.50;30.30;;;;;;;-4.07;80.84;99558.52;107294;1257;60478;-40
2024/01/11 00:58:05;;;;;;;59.10;29.60;;;;;;;-4.01;80.51;99555.94;107283;1262;60280;-40
2024/01/11 01:00:33;;;;;;;58.40;31.00;;;;;;;-4.03;80.46;99553.60;106183;1257;1003101;-40
2024/01/11 01:03:00;;;;;;;59.00;30.70;;;;;;;-4.06;80.62;99546.66;107327;1257;67546;-39
2024/01/11 01:05:28;;;;;;;57.40;30.30;;;;;;;-4.09;80.75;99540.65;107336;1256;71531;-40
2024/01/11 01:07:56;;;;;;;49.30;28.20;;;;;;;-4.07;80.69;99533.20;107305;1263;61618;-40
2024/01/11 01:10:23;;;;;;;52.80;29.60;;;;;;;-4.00;80.41;99520.67;107298;1257;60428;-40
2024/01/11 01:12:51;;;;;;;54.40;28.00;;;;;;;-4.02;80.40;99519.83;107324;1257;73792;-40
2024/01/11 01:15:18;;;;;;;56.30;29.50;;;;;;;-4.05;80.53;99517.59;107323;1257;67550;-40
2024/01/11 01:17:46;;;;;;;55.60;29.20;;;;;;;-4.09;80.66;99517.41;107300;1261;72789;-40
2024/01/11 01:20:14;;;;;;;56.80;27.40;;;;;;;-4.09;80.55;99519.58;107289;1258;60635;-40
2024/01/11 01:22:42;;;;;;;53.30;27.30;;;;;;;-4.02;80.65;99511.88;107365;1255;60524;-40
2024/01/11 01:25:10;;;;;;;54.50;28.50;;;;;;;-4.00;80.54;99504.20;107274;1257;73791;-40
2024/01/11 01:27:37;;;;;;;56.10;29.10;;;;;;;-4.01;80.83;99502.50;107342;1257;66684;-40
2024/01/11 01:30:06;;;;;;;54.90;29.50;;;;;;;-4.04;80.63;99501.45;107302;1258;72472;-40
2024/01/11 01:32:34;;;;;;;57.00;30.20;;;;;;;-4.06;80.51;99501.33;107366;1257;60876;-40
2024/01/11 01:35:02;;;;;;;52.00;27.50;;;;;;;-4.03;80.54;99495.52;107307;1257;60490;-40
2024/01/11 01:37:30;;;;;;;56.70;29.00;;;;;;;-3.96;80.46;99490.56;107329;1257;74118;-40
2024/01/11 01:39:58;;;;;;;58.80;30.70;;;;;;;-3.98;80.16;99480.86;107367;1260;66288;-40
2024/01/11 01:42:25;;;;;;;56.20;28.30;;;;;;;-4.02;80.02;99471.58;107339;1257;72509;-39
2024/01/11 01:44:53;;;;;;;59.60;29.90;;;;;;;-4.07;80.44;99469.23;107319;1257;60510;-40
2024/01/11 01:47:21;;;;;;;55.80;29.00;;;;;;;-4.07;80.30;99462.73;107273;1257;60296;-40
2024/01/11 01:49:49;;;;;;;56.90;29.30;;;;;;;-3.99;80.23;99455.86;107180;1257;73841;-40
2024/01/11 01:52:16;;;;;;;53.00;29.80;;;;;;;-3.96;80.35;99453.00;107279;1257;67609;-40
2024/01/11 01:54:44;;;;;;;56.10;30.10;;;;;;;-3.98;80.16;99440.92;107306;1256;71229;-40
2024/01/11 01:57:11;;;;;;;59.20;29.20;;;;;;;-4.02;80.36;99429.85;106474;1257;1003657;-40
2024/01/11 01:59:39;;;;;;;57.80;28.70;;;;;;;-4.05;80.39;99418.14;107089;1257;60329;-40
2024/01/11 02:02:07;;;;;;;59.80;29.40;;;;;;;-4.00;80.28;99408.83;107294;1263;73876;-40
2024/01/11 02:04:35;;;;;;;57.60;29.50;;;;;;;-3.96;80.15;99401.73;107317;1257;67552;-40
2024/01/11 02:07:02;;;;;;;60.90;30.80;;;;;;;-4.01;80.23;99400.14;107313;1258;72750;-40
2024/01/11 02:09:30;;;;;;;56.80;30.70;;;;;;;-4.06;80.42;99393.77;107317;1256;60424;-40
2024/01/11 02:11:57;;;;;;;58.00;30.70;;;;;;;-4.08;80.45;99388.44;107233;1257;60299;-40
2024/01/11 02:14:25;;;;;;;53.50;29.20;;;;;;;-4.04;80.53;99383.09;107315;1257;72854;-40
2024/01/11 02:16:53;;;;;;;57.10;29.30;;;;;;;-3.96;80.22;99381.92;107292;1258;67552;-40
2024/01/11 02:19:21;;;;;;;59.80;30.80;;;;;;;-3.96;80.16;99370.75;107301;1257;71412;-40
2024/01/11 02:21:50;;;;;;;55.10;30.60;;;;;;;-3.98;80.41;99363.88;107281;1257;60338;-40
2024/01/11 02:24:17;;;;;;;59.10;31.60;;;;;;;-3.99;80.58;99361.12;107249;1256;60546;-40
2024/01/11 02:27:06;;;;;;;58.00;29.70;;;;;;;-3.96;80.27;99361.23;107135;1255;72553;-40
2024/01/11 02:29:34;;;;;;;53.10;28.90;;;;;;;-3.89;80.08;99351.48;107329;1260;67892;-40
2024/01/11 02:32:02;;;;;;;58.80;29.90;;;;;;;-3.90;80.15;99353.11;107365;1257;72645;-40
2024/01/11 02:34:30;;;;;;;51.50;28.40;;;;;;;-3.94;80.18;99348.84;107296;1257;60492;-40
2024/01/11 02:36:58;;;;;;;55.40;28.70;;;;;;;-3.98;80.13;99348.31;107298;1255;60329;-40
2024/01/11 02:39:25;;;;;;;53.70;27.10;;;;;;;-3.95;80.05;99342.64;107139;1257;73901;-40
2024/01/11 02:41:56;;;;;;;49.00;25.90;;;;;;;-3.87;79.99;99331.73;107294;1263;66619;-40
2024/01/11 02:44:24;;;;;;;56.70;27.60;;;;;;;-3.85;79.95;99322.82;107263;1257;72758;-40
2024/01/11 02:46:51;;;;;;;56.80;29.30;;;;;;;-3.89;80.01;99319.44;107309;1258;60406;-40
2024/01/11 02:49:19;;;;;;;53.60;27.60;;;;;;;-3.94;80.13;99317.22;106603;1257;1003355;-40
2024/01/11 02:51:47;;;;;;;51.60;26.60;;;;;;;-3.91;80.26;99312.20;107275;1256;73868;-40
2024/01/11 02:54:14;;;;;;;48.60;25.80;;;;;;;-3.86;79.96;99302.13;107260;1256;66697;-40
2024/01/11 02:56:42;;;;;;;48.00;25.80;;;;;;;-3.86;79.88;99296.17;107293;1257;71456;-40
2024/01/11 02:59:10;;;;;;;51.80;26.40;;;;;;;-3.90;80.12;99294.75;107324;1260;60542;-40
2024/01/11 03:01:37;;;;;;;50.40;26.00;;;;;;;-3.96;80.16;99294.17;107287;1258;60593;-40
2024/01/11 03:04:05;;;;;;;49.20;25.30;;;;;;;-3.95;79.98;99293.64;107327;1257;71658;-40
2024/01/11 03:06:33;;;;;;;45.30;24.70;;;;;;;-3.88;80.06;99290.41;107304;1258;67562;-40
2024/01/11 03:09:00;;;;;;;48.50;26.50;;;;;;;-3.87;80.11;99280.56;107279;1257;72701;-40
2024/01/11 03:11:28;;;;;;;46.20;25.00;;;;;;;-3.90;80.15;99272.73;107253;1263;60367;-40
2024/01/11 03:13:56;;;;;;;45.50;24.70;;;;;;;-3.93;80.26;99263.95;107317;1258;60456;-40
2024/01/11 03:16:23;;;;;;;47.10;24.50;;;;;;;-3.95;80.07;99248.90;107243;1257;73858;-40
2024/01/11 03:18:51;;;;;;;44.90;23.80;;;;;;;-3.92;80.03;99233.11;107270;1256;66953;-40
2024/01/11 03:21:18;;;;;;;45.50;24.60;;;;;;;-3.90;80.36;99234.23;107308;1258;72776;-40
2024/01/11 03:23:46;;;;;;;51.10;26.20;;;;;;;-3.93;80.08;99229.45;107325;1258;60357;-40
2024/01/11 03:26:15;;;;;;;48.60;25.30;;;;;;;-3.98;80.41;99219.05;107268;1257;60502;-40
2024/01/11 03:28:43;;;;;;;46.20;23.60;;;;;;;-4.01;80.55;99216.71;107346;1257;73772;-40
2024/01/11 03:31:11;;;;;;;47.50;22.40;;;;;;;-3.96;80.03;99215.95;107285;1257;67540;-40
2024/01/11 03:33:39;;;;;;;48.40;25.10;;;;;;;-3.95;80.06;99206.27;107240;1262;71481;-40
2024/01/11 03:36:10;;;;;;;50.70;25.90;;;;;;;-3.99;80.30;99204.42;107052;1258;60527;-40
2024/01/11 03:38:37;;;;;;;53.80;25.40;;;;;;;-4.03;80.46;99198.55;106465;1256;1002897;-40
2024/01/11 03:41:09;;;;;;;46.60;23.60;;;;;;;-4.04;80.51;99185.73;107210;1257;73659;-40
2024/01/11 03:43:37;;;;;;;45.00;23.30;;;;;;;-3.96;80.64;99168.93;107268;1261;67593;-40
2024/01/11 03:46:05;;;;;;;45.10;24.20;;;;;;;-3.93;80.73;99160.30;107225;1258;72455;-40
2024/01/11 03:48:32;;;;;;;45.30;24.90;;;;;;;-3.96;80.89;99163.27;107221;1263;60677;-39
2024/01/11 03:51:00;;;;;;;44.30;23.50;;;;;;;-4.00;81.22;99154.80;107215;1257;59787;-40
2024/01/11 03:53:28;;;;;;;45.60;24.30;;;;;;;-3.97;81.30;99145.95;107216;1262;73814;-40
2024/01/11 03:55:55;;;;;;;46.60;24.40;;;;;;;-3.89;81.08;99136.98;107229;1258;67138;-40
2024/01/11 03:58:23;;;;;;;50.60;24.40;;;;;;;-3.90;81.32;99127.94;107182;1262;72622;-40
2024/01/11 04:00:50;;;;;;;44.10;23.30;;;;;;;-3.91;81.56;99132.48;107208;1257;60327;-40
2024/01/11 04:03:18;;;;;;;44.10;22.90;;;;;;;-3.95;81.73;99122.27;107249;1261;60364;-40
2024/01/11 04:05:46;;;;;;;46.40;24.80;;;;;;;-3.92;81.71;99125.86;107213;1257;73250;-40
2024/01/11 04:08:14;;;;;;;48.10;24.30;;;;;;;-3.85;81.71;99122.52;107231;1257;66650;-40
2024/01/11 04:10:41;;;;;;;46.50;24.50;;;;;;;-3.84;81.82;99118.85;107212;1260;71419;-40
2024/01/11 04:13:08;;;;;;;54.00;26.90;;;;;;;-3.87;81.90;99118.97;107225;1262;60676;-40
2024/01/11 04:15:36;;;;;;;44.20;24.50;;;;;;;-3.87;81.96;99120.34;107187;1257;59994;-40
2024/01/11 04:18:03;;;;;;;47.50;25.90;;;;;;;-3.79;81.75;99124.02;107201;1257;72682;-40
2024/01/11 04:20:31;;;;;;;49.20;25.20;;;;;;;-3.71;81.70;99123.87;106486;1257;1003442;-40
2024/01/11 04:22:59;;;;;;;49.50;26.30;;;;;;;-3.71;81.75;99123.98;107225;1262;72703;-40
2024/01/11 04:25:27;;;;;;;48.60;24.90;;;;;;;-3.70;81.82;99122.81;107228;1258;60459;-40
2024/01/11 04:27:54;;;;;;;48.90;25.50;;;;;;;-3.68;81.64;99126.73;106496;1262;1003019;-40
2024/01/11 04:30:22;;;;;;;45.10;24.40;;;;;;;-3.63;81.44;99121.62;107212;1257;72555;-40
2024/01/11 04:32:49;;;;;;;48.20;25.90;;;;;;;-3.58;81.40;99123.06;107208;1257;67898;-40
2024/01/11 04:35:17;;;;;;;49.40;26.70;;;;;;;-3.58;81.46;99118.73;107207;1258;71404;-40
2024/01/11 04:37:45;;;;;;;49.50;26.50;;;;;;;-3.60;81.57;99121.34;107219;1262;60364;-40
2024/01/11 04:40:12;;;;;;;46.20;24.60;;;;;;;-3.57;81.53;99118.84;107215;1262;59238;-40
2024/01/11 04:42:40;;;;;;;43.80;24.40;;;;;;;-3.48;81.43;99123.30;107066;1257;73858;-40
2024/01/11 04:45:07;;;;;;;53.50;27.30;;;;;;;-3.44;81.40;99126.92;107249;1257;67522;-40
2024/01/11 04:47:35;;;;;;;51.60;26.00;;;;;;;-3.48;81.50;99122.23;107203;1258;71397;-40
2024/01/11 04:50:03;;;;;;;47.20;25.80;;;;;;;-3.49;81.67;99123.93;107175;1261;60444;-40
2024/01/11 04:52:31;;;;;;;47.70;24.50;;;;;;;-3.45;81.84;99121.79;107036;1257;59982;-40
2024/01/11 04:54:58;;;;;;;47.20;25.80;;;;;;;-3.36;81.63;99120.41;107225;1263;72789;-40
2024/01/11 04:57:26;;;;;;;47.30;25.10;;;;;;;-3.33;81.60;99122.41;107221;1263;66303;-40
2024/01/11 04:59:53;;;;;;;47.50;25.50;;;;;;;-3.36;81.85;99129.06;107220;1260;71535;-40
2024/01/11 05:02:21;;;;;;;49.10;25.50;;;;;;;-3.39;81.99;99125.21;107219;1257;60312;-40
2024/01/11 05:04:48;;;;;;;46.50;24.30;;;;;;;-3.40;82.23;99122.88;107235;1261;59277;-40
2024/01/11 05:07:16;;;;;;;44.60;23.50;;;;;;;-3.34;82.10;99116.27;107249;1261;73010;-40
2024/01/11 05:09:43;;;;;;;55.10;25.30;;;;;;;-3.29;82.02;99114.77;107198;1257;66615;-40
2024/01/11 05:12:11;;;;;;;47.40;25.50;;;;;;;-3.30;82.26;99107.77;107234;1260;71306;-40
2024/01/11 05:14:38;;;;;;;50.10;26.80;;;;;;;-3.30;82.17;99105.39;107222;1263;61133;-40
2024/01/11 05:17:06;;;;;;;44.20;24.80;;;;;;;-3.32;82.30;99106.13;106472;1257;1003418;-40
2024/01/11 05:19:33;;;;;;;44.00;23.70;;;;;;;-3.27;82.12;99099.38;106469;1262;1002892;-40
2024/01/11 05:22:01;;;;;;;47.30;24.80;;;;;;;-3.22;82.02;99096.84;107241;1262;66848;-40
2024/01/11 05:24:29;;;;;;;45.90;25.40;;;;;;;-3.27;82.08;99091.63;107207;1262;72676;-40
2024/01/11 05:26:56;;;;;;;46.80;25.70;;;;;;;-3.33;82.25;99095.48;107198;1263;59579;-40
2024/01/11 05:29:23;;;;;;;51.90;26.20;;;;;;;-3.36;82.36;99092.91;107271;1257;60430;-40
2024/01/11 05:31:51;;;;;;;46.20;23.80;;;;;;;-3.31;82.40;99097.52;107288;1263;73012;-39
2024/01/11 05:34:19;;;;;;;47.20;23.60;;;;;;;-3.24;82.25;99096.11;107280;1257;67971;-40
2024/01/11 05:36:46;;;;;;;50.30;26.00;;;;;;;-3.26;81.86;99092.73;107272;1258;72699;-40
2024/01/11 05:39:14;;;;;;;47.80;25.10;;;;;;;-3.28;82.03;99095.70;107274;1258;60521;-40
2024/01/11 05:41:44;;;;;;;50.10;25.70;;;;;;;-3.30;82.09;99091.64;107262;1261;60344;-40
2024/01/11 05:44:13;;;;;;;43.20;23.60;;;;;;;-3.23;81.84;99086.99;107318;1260;72543;-40
2024/01/11 05:46:40;;;;;;;47.90;24.70;;;;;;;-3.16;81.65;99085.88;107278;1257;67553;-40
2024/01/11 05:49:08;;;;;;;47.30;24.80;;;;;;;-3.14;81.36;99083.73;107264;1261;72088;-40
2024/01/11 05:51:35;;;;;;;48.80;26.20;;;;;;;-3.15;81.56;99078.65;107279;1263;60569;-40
2024/01/11 05:54:03;;;;;;;47.70;25.70;;;;;;;-3.16;81.61;99071.67;107305;1261;59676;-40
2024/01/11 05:56:30;;;;;;;47.50;24.90;;;;;;;-3.18;81.59;99069.61;107622;1254;73800;-40
2024/01/11 05:58:58;;;;;;;46.60;24.40;;;;;;;-3.15;81.45;99072.62;107612;1256;66615;-39
2024/01/11 06:01:26;;;;;;;48.00;24.80;;;;;;;-3.10;81.42;99080.05;107679;1256;72956;-40
2024/01/11 06:03:54;;;;;;;43.90;24.80;;;;;;;-3.11;81.55;99085.20;107620;1257;60428;-40
2024/01/11 06:06:22;;;;;;;47.80;25.80;;;;;;;-3.11;81.63;99079.36;107612;1254;60331;-40
2024/01/11 06:08:50;;;;;;;51.70;25.50;;;;;;;-3.10;81.50;99076.61;107630;1252;73859;-39
2024/01/11 06:11:18;;;;;;;50.80;23.80;;;;;;;-3.13;81.35;99052.08;107602;1257;67571;-40
2024/01/11 06:13:47;;;;;;;50.00;25.90;;;;;;;-3.10;81.09;99025.49;107609;1256;73196;-40
2024/01/11 06:16:14;;;;;;;47.40;25.10;;;;;;;-3.08;80.87;99014.86;107597;1260;60538;-40
2024/01/11 06:18:42;;;;;;;51.00;26.90;;;;;;;-3.12;80.88;99018.98;107625;1257;60477;-40
2024/01/11 06:21:09;;;;;;;56.10;28.10;;;;;;;-3.15;81.04;99035.29;107605;1254;73837;-40
2024/01/11 06:23:37;;;;;;;53.00;26.50;;;;;;;-3.19;80.96;99037.02;107592;1254;67594;-40
2024/01/11 06:26:04;;;;;;;45.00;24.80;;;;;;;-3.15;80.74;99036.23;107672;1254;72648;-40
2024/01/11 06:28:32;;;;;;;50.10;25.80;;;;;;;-3.10;80.26;99028.14;107609;1257;60431;-40
2024/01/11 06:31:03;;;;;;;51.60;26.40;;;;;;;-3.14;80.09;99034.59;107628;1254;60403;-40
2024/01/11 06:33:32;;;;;;;54.90;27.10;;;;;;;-3.21;79.94;99037.88;107644;1254;72564;-40
2024/01/11 06:36:00;;;;;;;51.80;27.40;;;;;;;-3.26;80.14;99040.62;107611;1254;68039;-40
2024/01/11 06:38:28;;;;;;;53.90;27.00;;;;;;;-3.28;79.98;99031.61;107576;1254;72651;-40
2024/01/11 06:40:56;;;;;;;47.50;24.20;;;;;;;-3.23;79.77;99024.27;107626;1254;60440;-40
2024/01/11 06:43:24;;;;;;;53.00;26.60;;;;;;;-3.21;79.83;99012.80;107606;1254;59336;-40
2024/01/11 06:45:52;;;;;;;56.80;28.50;;;;;;;-3.23;79.79;99016.69;107642;1257;73872;-40
2024/01/11 06:48:20;;;;;;;42.50;20.90;;;;;;;-3.28;79.56;99018.52;107588;1254;66793;-40
2024/01/11 06:50:48;;;;;;;47.70;25.40;;;;;;;-3.31;79.68;99018.40;107604;1257;72677;-41
2024/01/11 06:53:15;;;;;;;51.40;26.90;;;;;;;-3.26;79.58;99014.59;106852;1257;1003656;-41
2024/01/11 06:55:44;;;;;;;52.60;25.80;;;;;;;-3.21;79.39;99014.23;107686;1254;60572;-41
2024/01/11 06:58:12;;;;;;;53.10;27.80;;;;;;;-3.24;79.55;99012.28;106858;1255;1003431;-41
2024/01/11 07:00:42;;;;;;;56.20;27.60;;;;;;;-3.28;79.51;99007.39;106842;1254;1003675;-41
2024/01/11 07:03:11;;;;;;;55.40;27.20;;;;;;;-3.30;79.63;99007.27;106873;1257;1003052;-41
2024/01/11 07:05:39;;;;;;;52.80;26.40;;;;;;;-3.29;79.89;99001.52;107693;1254;61030;-41
2024/01/11 07:08:07;;;;;;;50.90;27.10;;;;;;;-3.21;79.68;99000.50;107612;1254;60496;-38
2024/01/11 07:10:34;;;;;;;51.80;26.00;;;;;;;-3.17;79.81;99000.26;107597;1255;73972;-38
2024/01/11 07:13:02;;;;;;;55.60;27.90;;;;;;;-3.17;79.76;99002.75;107571;1252;66542;-38
2024/01/11 07:15:30;;;;;;;56.40;28.50;;;;;;;-3.19;79.78;98993.70;106861;1254;1003070;-39
2024/01/11 07:17:57;;;;;;;53.50;26.30;;;;;;;-3.21;79.73;98995.30;107572;1257;61401;-39
2024/01/11 07:20:25;;;;;;;49.50;24.90;;;;;;;-3.18;79.82;98989.87;107609;1255;60552;-39
2024/01/11 07:22:53;;;;;;;48.90;25.40;;;;;;;-3.14;79.67;98981.02;107667;1252;73741;-39
2024/01/11 07:25:20;;;;;;;52.00;26.40;;;;;;;-3.12;80.01;98982.94;107591;1257;66857;-39
2024/01/11 07:27:48;;;;;;;53.10;25.80;;;;;;;-3.12;80.14;98980.97;107639;1255;72686;-39
2024/01/11 07:30:18;;;;;;;50.70;26.30;;;;;;;-3.10;80.30;98975.86;107660;1257;60498;-38
2024/01/11 07:32:45;;;;;;;;;;;;;;;-3.08;79.82;98974.77;107689;1251;60283;-39
2024/01/11 07:35:14;;;;;;;48.80;25.10;;;;;;;-3.04;79.64;98967.96;107725;1256;73823;-39
2024/01/11 07:37:45;;;;;;;53.10;25.70;;;;;;;-3.00;79.33;98962.55;107747;1257;67680;-40
2024/01/11 07:40:13;;;;;;;52.20;27.30;;;;;;;-3.02;79.38;98956.69;107654;1251;72843;-39
2024/01/11 07:42:42;;;;;;;50.50;26.00;;;;;;;-3.01;79.35;98960.61;107683;1254;60412;-39
2024/01/11 07:45:12;;;;;;;50.60;25.30;;;;;;;-3.02;79.32;98961.20;106907;1251;1015909;-40
2024/01/11 07:50:24;;;;;;;50.60;25.00;;;;;;;-2.95;79.24;98960.59;104334;1291;600483;-39
2024/01/11 07:52:52;;;;;;;45.40;24.00;;;;;;;-2.88;78.92;98963.12;106617;1264;59347;-39
2024/01/11 07:55:23;;;;;;;42.70;24.20;;;;;;;-2.84;78.80;98960.84;106620;1264;59942;-39
2024/01/11 07:57:51;;;;;;;40.80;22.80;;;;;;;-2.84;78.72;98949.55;106736;1264;72376;-39
2024/01/11 08:00:18;;;;;;;47.70;24.20;;;;;;;-2.85;78.97;98955.86;106603;1264;67023;-39
2024/01/11 08:02:46;;;;;;;43.60;23.00;;;;;;;-2.86;78.71;98948.63;106630;1264;73154;-39
2024/01/11 08:05:14;;;;;;;42.20;23.00;;;;;;;-2.83;78.40;98950.56;106623;1268;156256;-39
2024/01/11 08:07:42;;;;;;;48.60;24.40;;;;;;;-2.78;78.49;98951.03;106762;1262;59284;-39
2024/01/11 08:10:09;;;;;;;42.90;22.60;;;;;;;-2.78;78.29;98952.25;106847;1264;72430;-39
2024/01/11 08:12:37;;;;;;;44.70;23.70;;;;;;;-2.80;78.59;98951.30;106923;1260;66133;-39
2024/01/11 08:15:05;;;;;;;42.50;23.20;;;;;;;-2.79;78.39;98958.36;106901;1260;72752;-39
2024/01/11 08:17:33;;;;;;;44.60;23.40;;;;;;;-2.80;78.14;98963.30;106994;1260;59608;-39
2024/01/11 08:20:01;;;;;;;42.10;23.20;;;;;;;-2.76;78.10;98963.27;107034;1265;59516;-39
2024/01/11 08:22:33;;;;;;;44.80;22.40;;;;;;;-2.70;77.86;98957.20;107025;1260;73133;-39
2024/01/11 08:25:01;;;;;;;42.90;24.40;;;;;;;-2.70;77.73;98954.48;107030;1265;67396;-39
2024/01/11 08:27:29;;;;;;;46.90;25.20;;;;;;;-2.73;77.80;98947.01;107034;1260;72681;-39
2024/01/11 08:29:57;;;;;;;46.80;24.60;;;;;;;-2.75;77.93;98945.43;107095;1260;59505;-39
2024/01/11 08:32:24;;;;;;;49.20;24.50;;;;;;;-2.76;77.94;98942.59;107080;1258;60078;-39
2024/01/11 08:34:58;;;;;;;42.80;23.50;;;;;;;-2.73;77.92;98938.46;107014;1260;73317;-39
2024/01/11 08:37:27;;;;;;;44.40;23.80;;;;;;;-2.69;77.83;98933.52;107014;1260;67571;-39
2024/01/11 08:39:54;;;;;;;43.50;23.80;;;;;;;-2.69;77.56;98939.47;107032;1260;72673;-39
2024/01/11 08:42:22;;;;;;;45.50;23.50;;;;;;;-2.72;77.85;98941.63;105514;1261;1003783;-39
2024/01/11 08:44:49;;;;;;;50.20;24.40;;;;;;;-2.77;77.49;98941.95;107048;1263;59658;-39
2024/01/11 08:47:17;;;;;;;45.80;23.90;;;;;;;-2.79;77.68;98939.52;107022;1259;73073;-39
2024/01/11 08:49:44;;;;;;;46.90;23.30;;;;;;;-2.74;77.59;98941.01;107260;1254;68247;-41
2024/01/11 08:52:12;;;;;;;49.40;23.70;;;;;;;-2.70;77.45;98931.98;107245;1260;71437;-40
2024/01/11 08:54:39;;;;;;;46.60;24.90;;;;;;;-2.71;77.46;98932.45;107286;1254;59748;-41
2024/01/11 08:57:07;;;;;;;48.10;25.10;;;;;;;-2.71;77.51;98931.95;107323;1254;59980;-39
2024/01/11 08:59:35;;;;;;;48.40;25.10;;;;;;;-2.69;77.40;98924.39;106532;1254;1003790;-39
2024/01/11 09:02:03;;;;;;;46.00;24.60;;;;;;;-2.65;77.16;98925.58;107279;1257;67846;-40
2024/01/11 09:04:42;;;;;;;45.30;23.00;;;;;;;-2.55;76.91;98916.12;107250;1258;72999;-39
2024/01/11 09:07:10;;;;;;;52.40;25.80;;;;;;;-2.51;76.49;98906.02;107240;1257;59587;-39
2024/01/11 09:09:37;;;;;;;49.30;24.00;;;;;;;-2.55;76.34;98906.08;107331;1255;60023;-40
2024/01/11 09:12:17;;;;;;;49.40;25.50;;;;;;;-2.58;76.54;98906.71;106484;1255;1003426;-40
2024/01/11 09:14:44;;;;;;;48.40;24.40;;;;;;;-2.59;76.51;98910.48;107352;1256;68205;-40
2024/01/11 09:17:12;;;;;;;45.00;23.80;;;;;;;-2.51;76.65;98904.06;106468;1257;1003121;-39
2024/01/11 09:19:39;;;;;;;48.70;25.70;;;;;;;-2.41;76.40;98899.48;107152;1257;59660;-39
2024/01/11 09:22:09;;;;;;;51.30;24.90;;;;;;;-2.37;76.18;98900.17;107206;1257;60094;-39
2024/01/11 09:24:38;;;;;;;52.20;25.30;;;;;;;-2.40;75.94;98895.48;107213;1256;73345;-39
2024/01/11 09:27:06;;;;;;;50.30;25.60;;;;;;;-2.43;75.81;98890.06;107244;1257;68408;-39
2024/01/11 09:29:34;;;;;;;45.50;23.90;;;;;;;-2.46;75.95;98885.94;106467;1256;1003273;-39
2024/01/11 09:32:02;;;;;;;44.70;23.90;;;;;;;-2.42;76.05;98887.12;106529;1257;1002951;-39
2024/01/11 09:34:29;;;;;;;46.40;24.10;;;;;;;-2.33;76.02;98881.90;107252;1257;59206;-39
2024/01/11 09:36:58;;;;;;;48.10;23.70;;;;;;;-2.29;75.56;98874.27;107254;1257;72410;-39
2024/01/11 09:39:27;;;;;;;;;;;;;;;-2.32;75.43;98869.67;107237;1257;67918;-39
2024/01/11 09:41:59;;;;;;;46.50;24.80;;;;;;;-2.38;75.46;98866.95;106532;1257;1003217;-39
2024/01/11 09:44:27;;;;;;;46.90;24.50;;;;;;;-2.42;75.39;98865.04;107191;1255;60993;-40
2024/01/11 09:46:54;;;;;;;46.70;24.60;;;;;;;-2.39;75.39;98860.31;107307;1255;59647;-40
2024/01/11 09:49:23;;;;;;;48.70;24.60;;;;;;;-2.32;75.45;98857.63;107275;1257;73143;-40
2024/01/11 09:51:50;;;;;;;43.80;23.30;;;;;;;-2.32;75.39;98848.00;107354;1256;67841;-39
2024/01/11 09:54:20;;;;;;;47.70;25.20;;;;;;;-2.32;75.28;98848.17;107264;1260;72776;-40
2024/01/11 09:56:50;;;;;;;50.30;25.40;;;;;;;-2.34;75.19;98838.28;107252;1257;59624;-40
2024/01/11 09:59:18;;;;;;;;;;;;;;;-2.35;75.32;98831.65;106525;1260;1003032;-40
2024/01/11 10:01:45;;;;;;;43.90;23.30;;;;;;;-2.29;75.16;98825.20;107242;1256;71668;-40
2024/01/11 10:04:13;;;;;;;44.00;24.00;;;;;;;-2.21;74.99;98823.48;107297;1256;67455;-40
2024/01/11 10:06:41;;;;;;;45.80;24.00;;;;;;;-2.17;74.64;98818.05;107238;1257;71497;-40
2024/01/11 10:09:09;;;;;;;44.30;23.50;;;;;;;-2.19;74.35;98811.61;107192;1258;59667;-40
2024/01/11 10:11:37;;;;;;;47.80;24.70;;;;;;;-2.22;74.39;98806.50;107390;1257;59368;-41
2024/01/11 10:14:06;;;;;;;45.00;24.10;;;;;;;-2.23;74.33;98806.73;107308;1256;73142;-40
2024/01/11 10:16:34;;;;;;;45.80;24.30;;;;;;;-2.22;74.09;98802.69;107261;1257;67872;-40
2024/01/11 10:19:03;;;;;;;43.80;24.00;;;;;;;-2.14;74.29;98800.39;107284;1257;72706;-40
2024/01/11 10:21:31;;;;;;;43.70;24.20;;;;;;;-2.11;73.88;98798.69;107276;1257;59439;-40
2024/01/11 10:24:04;;;;;;;45.80;24.30;;;;;;;-2.11;74.11;98793.59;107295;1256;59542;-40
2024/01/11 10:26:32;;;;;;;42.20;23.90;;;;;;;-2.13;73.93;98782.64;107281;1256;72303;-40
2024/01/11 10:29:00;;;;;;;44.90;24.40;;;;;;;-2.16;73.72;98781.09;107268;1257;67523;-40
2024/01/11 10:31:28;;;;;;;44.50;23.40;;;;;;;-2.14;73.80;98779.30;107249;1257;71501;-40
2024/01/11 10:33:57;;;;;;;43.70;23.60;;;;;;;-2.06;73.72;98774.88;107332;1255;59535;-40
2024/01/11 10:36:26;;;;;;;34.10;18.80;;;;;;;-2.01;73.83;98772.17;107332;1258;59615;-40
2024/01/11 10:38:53;;;;;;;45.40;24.30;;;;;;;-2.01;73.60;98769.05;107255;1255;73020;-40
2024/01/11 10:41:21;;;;;;;42.30;23.70;;;;;;;-2.03;73.19;98766.95;107127;1257;67718;-40
2024/01/11 10:43:49;;;;;;;43.80;23.10;;;;;;;-2.07;73.17;98767.45;107251;1257;71492;-40
2024/01/11 10:46:17;;;;;;;47.50;24.20;;;;;;;-2.10;73.40;98763.88;107337;1257;59660;-40
2024/01/11 10:48:45;;;;;;;39.70;21.90;;;;;;;-2.03;73.32;98764.13;107272;1256;59424;-40
2024/01/11 10:51:14;;;;;;;42.90;22.40;;;;;;;-1.99;73.10;98763.13;107055;1257;73038;-40
2024/01/11 10:53:46;;;;;;;41.80;22.30;;;;;;;-2.02;73.16;98758.33;107272;1257;66572;-40
2024/01/11 10:56:18;;;;;;;43.00;21.40;;;;;;;-2.03;73.23;98758.73;107239;1257;72829;-40
2024/01/11 10:58:48;;;;;;;44.30;24.00;;;;;;;-2.04;73.26;98756.63;107224;1257;59976;-40
2024/01/11 11:01:16;;;;;;;37.80;21.10;;;;;;;-2.04;73.16;98758.38;107049;1257;60076;-40
2024/01/11 11:03:44;;;;;;;41.10;22.60;;;;;;;-2.00;73.07;98757.64;107234;1257;72193;-40
2024/01/11 11:06:12;;;;;;;44.70;21.90;;;;;;;-1.93;72.82;98752.13;107309;1257;68360;-40
2024/01/11 11:08:41;;;;;;;37.20;21.80;;;;;;;-1.93;72.95;98745.95;107035;1257;72798;-40
2024/01/11 11:11:08;;;;;;;36.80;21.30;;;;;;;-1.94;72.96;98733.60;107207;1257;59647;-40
2024/01/11 11:13:36;;;;;;;38.40;21.40;;;;;;;-1.96;72.81;98730.19;107056;1257;61668;-40
2024/01/11 11:16:05;;;;;;;41.20;20.80;;;;;;;-1.98;72.80;98729.56;107260;1260;71794;-39